Time;durP1;ratioP1;P1;durP2;ratioP2;P2;SDS_P1;SDS_P2;PMS_P1;PMS_P2;Temp;Humidity;BMP_temperature;BMP_pressure;BME280_temperature;BME280_humidity;BME280_pressure;Samples;Min_cycle;Max_cycle;Signal;HPM_P1;HPM_P2
2021/12/28 00:00:01;;;;;;;6.65;2.90;;;;;;;;;;4946182;28;20070;-61
2021/12/28 00:02:28;;;;;;;6.28;3.30;;;;;;;;;;4949916;28;20086;-62
2021/12/28 00:04:54;;;;;;;4.57;2.40;;;;;;;;;;4949751;28;20047;-61
2021/12/28 00:07:21;;;;;;;4.40;2.58;;;;;;;;;;4951640;28;20145;-61
2021/12/28 00:09:49;;;;;;;6.35;2.70;;;;;;;;;;4950775;28;20142;-61
2021/12/28 00:12:15;;;;;;;5.65;2.88;;;;;;;;;;4946447;28;20488;-60
2021/12/28 00:14:50;;;;;;;4.97;2.60;;;;;;;;;;4951664;28;20066;-60
2021/12/28 00:20:01;;;;;;;6.22;2.42;;;;;;;;;;4952326;28;20065;-61
2021/12/28 00:22:27;;;;;;;8.35;2.67;;;;;;;;;;4946067;28;20143;-61
2021/12/28 00:24:55;;;;;;;6.32;2.75;;;;;;;;;;4947423;28;20169;-61
2021/12/28 00:27:22;;;;;;;4.75;2.88;;;;;;;;;;4949203;28;20129;-61
2021/12/28 00:29:48;;;;;;;5.25;2.88;;;;;;;;;;4951829;28;20141;-61
2021/12/28 00:32:15;;;;;;;5.25;2.70;;;;;;;;;;4950667;28;20102;-62
2021/12/28 00:34:41;;;;;;;7.22;2.97;;;;;;;;;;4950861;28;20198;-61
2021/12/28 00:37:08;;;;;;;4.82;2.70;;;;;;;;;;4954934;28;20079;-59
2021/12/28 00:39:34;;;;;;;6.75;2.80;;;;;;;;;;4952521;28;20088;-61
2021/12/28 00:42:02;;;;;;;4.18;2.22;;;;;;;;;;4951746;28;20079;-61
2021/12/28 00:44:29;;;;;;;5.75;2.10;;;;;;;;;;4944471;28;20050;-60
2021/12/28 00:46:55;;;;;;;4.88;2.05;;;;;;;;;;4949237;28;20121;-61
2021/12/28 00:49:22;;;;;;;10.82;3.15;;;;;;;;;;4947757;28;20401;-61
2021/12/28 00:51:50;;;;;;;5.57;2.33;;;;;;;;;;4948187;28;20138;-61
2021/12/28 00:54:16;;;;;;;7.20;3.00;;;;;;;;;;4949057;28;20050;-61
2021/12/28 00:56:43;;;;;;;6.50;2.25;;;;;;;;;;4947792;28;20166;-61
2021/12/28 00:59:12;;;;;;;6.38;2.40;;;;;;;;;;4951038;28;20079;-60
2021/12/28 01:01:38;;;;;;;5.15;2.33;;;;;;;;;;4946680;28;20607;-60
2021/12/28 01:04:05;;;;;;;9.88;2.60;;;;;;;;;;4948500;28;20055;-61
2021/12/28 01:06:31;;;;;;;4.40;2.08;;;;;;;;;;4947009;28;20321;-59
2021/12/28 01:08:58;;;;;;;5.03;2.28;;;;;;;;;;4947810;28;20278;-60
2021/12/28 01:11:24;;;;;;;5.68;2.30;;;;;;;;;;4948882;28;20074;-60
2021/12/28 01:13:51;;;;;;;5.60;2.35;;;;;;;;;;4948160;28;20130;-55
2021/12/28 01:16:19;;;;;;;3.72;2.00;;;;;;;;;;4947318;28;20146;-61
2021/12/28 01:18:46;;;;;;;7.15;1.88;;;;;;;;;;4936884;28;20138;-61
2021/12/28 01:21:12;;;;;;;3.78;1.70;;;;;;;;;;4953093;28;20121;-61
2021/12/28 01:23:39;;;;;;;5.07;1.92;;;;;;;;;;4946128;28;20178;-61
2021/12/28 01:26:06;;;;;;;8.27;1.63;;;;;;;;;;4951796;28;20070;-61
2021/12/28 01:28:32;;;;;;;9.40;1.90;;;;;;;;;;4957656;28;20093;-61
2021/12/28 01:30:59;;;;;;;7.70;2.05;;;;;;;;;;4951766;28;20142;-61
2021/12/28 01:33:27;;;;;;;5.38;1.80;;;;;;;;;;4954467;28;20485;-60
2021/12/28 01:35:54;;;;;;;5.05;2.05;;;;;;;;;;4955098;28;20141;-58
2021/12/28 01:38:20;;;;;;;5.75;2.35;;;;;;;;;;4955685;28;20051;-61
2021/12/28 01:40:47;;;;;;;3.45;1.83;;;;;;;;;;4954355;28;20547;-59
2021/12/28 01:43:16;;;;;;;4.10;1.70;;;;;;;;;;4947484;28;20143;-61
2021/12/28 01:45:46;;;;;;;5.57;1.60;;;;;;;;;;4953175;28;20062;-61
2021/12/28 01:48:16;;;;;;;4.75;1.90;;;;;;;;;;4949235;28;21499;-60
2021/12/28 01:50:45;;;;;;;8.52;4.38;;;;;;;;;;4952064;28;20551;-61
2021/12/28 01:53:12;;;;;;;10.93;2.20;;;;;;;;;;4952905;28;20065;-61
2021/12/28 01:55:40;;;;;;;6.32;2.15;;;;;;;;;;4954029;28;20134;-60
2021/12/28 01:58:08;;;;;;;2.80;1.50;;;;;;;;;;4949642;28;20141;-61
2021/12/28 02:00:35;;;;;;;3.42;1.42;;;;;;;;;;4949657;28;20074;-61
2021/12/28 02:03:07;;;;;;;3.40;1.50;;;;;;;;;;4950712;28;20464;-61
2021/12/28 02:05:34;;;;;;;5.82;1.70;;;;;;;;;;4948640;28;20047;-61
2021/12/28 02:08:02;;;;;;;3.55;2.30;;;;;;;;;;4954997;28;20079;-58
2021/12/28 02:10:29;;;;;;;10.95;5.75;;;;;;;;;;4950258;28;20047;-61
2021/12/28 02:12:55;;;;;;;8.82;3.20;;;;;;;;;;4954193;28;20554;-60
2021/12/28 02:15:22;;;;;;;8.60;2.63;;;;;;;;;;4957407;28;20138;-61
2021/12/28 02:17:48;;;;;;;4.88;2.05;;;;;;;;;;4952410;28;20086;-62
2021/12/28 02:20:19;;;;;;;3.45;1.90;;;;;;;;;;4950957;28;20720;-61
2021/12/28 02:22:45;;;;;;;3.17;1.55;;;;;;;;;;4954697;28;20090;-60
2021/12/28 02:25:13;;;;;;;3.20;1.70;;;;;;;;;;4954243;28;20130;-59
2021/12/28 02:27:40;;;;;;;3.15;1.42;;;;;;;;;;4948726;28;20071;-61
2021/12/28 02:30:09;;;;;;;4.40;1.92;;;;;;;;;;4954784;28;20139;-61
2021/12/28 02:32:42;;;;;;;4.13;1.55;;;;;;;;;;4950865;28;20130;-61
2021/12/28 02:35:11;;;;;;;4.20;1.63;;;;;;;;;;4955359;28;20495;-58
2021/12/28 02:37:39;;;;;;;3.90;1.70;;;;;;;;;;4950406;28;20078;-61
2021/12/28 02:40:07;;;;;;;3.40;1.27;;;;;;;;;;4954299;28;20078;-60
2021/12/28 02:42:34;;;;;;;3.92;1.40;;;;;;;;;;4948716;28;20139;-61
2021/12/28 02:45:07;;;;;;;3.40;1.10;;;;;;;;;;4950760;28;20145;-61
2021/12/28 02:47:34;;;;;;;2.58;1.20;;;;;;;;;;4952337;28;20145;-60
2021/12/28 02:50:01;;;;;;;3.03;1.30;;;;;;;;;;4952422;28;20290;-61
2021/12/28 02:52:27;;;;;;;4.85;1.40;;;;;;;;;;4954707;28;20101;-58
2021/12/28 02:54:55;;;;;;;4.32;1.30;;;;;;;;;;4953513;28;20126;-60
2021/12/28 02:57:22;;;;;;;2.35;0.95;;;;;;;;;;4958746;28;20082;-61
2021/12/28 02:59:50;;;;;;;2.95;1.25;;;;;;;;;;4933863;28;20244;-58
2021/12/28 03:02:17;;;;;;;4.15;1.20;;;;;;;;;;4948028;28;20130;-60
2021/12/28 03:04:44;;;;;;;3.55;1.20;;;;;;;;;;4944816;28;20165;-59
2021/12/28 03:07:11;;;;;;;2.67;1.13;;;;;;;;;;4953384;28;20159;-60
2021/12/28 03:09:38;;;;;;;2.55;1.00;;;;;;;;;;4945490;28;20173;-60
2021/12/28 03:12:07;;;;;;;2.33;1.00;;;;;;;;;;4953136;28;20047;-61
2021/12/28 03:14:34;;;;;;;2.97;0.93;;;;;;;;;;4953004;28;20079;-59
2021/12/28 03:17:00;;;;;;;2.42;1.05;;;;;;;;;;4953144;28;20125;-60
2021/12/28 03:19:27;;;;;;;1.60;0.90;;;;;;;;;;4951293;28;20164;-61
2021/12/28 03:21:53;;;;;;;3.00;1.50;;;;;;;;;;4953612;28;20055;-61
2021/12/28 03:24:20;;;;;;;3.05;1.13;;;;;;;;;;4953395;28;20126;-58
2021/12/28 03:26:46;;;;;;;2.85;0.98;;;;;;;;;;4954100;28;20073;-60
2021/12/28 03:29:14;;;;;;;2.28;1.02;;;;;;;;;;4955090;28;20212;-61
2021/12/28 03:31:41;;;;;;;3.78;1.02;;;;;;;;;;4947627;28;20071;-61
2021/12/28 03:34:08;;;;;;;4.90;1.33;;;;;;;;;;4947342;28;20078;-60
2021/12/28 03:36:34;;;;;;;3.00;1.20;;;;;;;;;;4948794;28;20082;-61
2021/12/28 03:39:02;;;;;;;2.05;1.00;;;;;;;;;;4955510;28;20079;-61
2021/12/28 03:41:31;;;;;;;3.22;0.90;;;;;;;;;;4946203;28;20050;-60
2021/12/28 03:43:58;;;;;;;1.65;0.80;;;;;;;;;;4948902;28;20436;-57
2021/12/28 03:46:28;;;;;;;1.65;1.33;;;;;;;;;;4943801;28;20138;-59
2021/12/28 03:48:55;;;;;;;1.38;0.80;;;;;;;;;;4956469;28;20082;-60
2021/12/28 03:51:21;;;;;;;4.63;1.00;;;;;;;;;;4950454;28;20137;-59
2021/12/28 03:53:48;;;;;;;2.17;1.10;;;;;;;;;;4949612;28;20167;-60
2021/12/28 03:56:16;;;;;;;2.78;0.93;;;;;;;;;;4954211;28;20583;-60
2021/12/28 03:58:44;;;;;;;2.05;0.93;;;;;;;;;;4955399;28;20586;-60
2021/12/28 04:01:12;;;;;;;4.47;0.90;;;;;;;;;;4945391;28;20146;-61
2021/12/28 04:03:41;;;;;;;4.53;1.00;;;;;;;;;;4953885;28;20126;-58
2021/12/28 04:06:09;;;;;;;1.45;0.65;;;;;;;;;;4948707;28;20086;-60
2021/12/28 04:08:37;;;;;;;1.75;0.80;;;;;;;;;;4954964;28;20045;-61
2021/12/28 04:11:14;;;;;;;3.15;0.70;;;;;;;;;;4951424;28;20788;-60
2021/12/28 04:13:42;;;;;;;4.25;0.90;;;;;;;;;;4949107;28;20699;-60
2021/12/28 04:16:09;;;;;;;3.45;0.93;;;;;;;;;;4947894;28;20066;-61
2021/12/28 04:18:35;;;;;;;2.33;0.90;;;;;;;;;;4946669;28;20463;-61
2021/12/28 04:21:03;;;;;;;3.90;1.02;;;;;;;;;;4947927;28;20075;-61
2021/12/28 04:23:30;;;;;;;2.47;0.77;;;;;;;;;;4947271;28;20071;-59
2021/12/28 04:25:56;;;;;;;4.75;1.30;;;;;;;;;;4950443;28;20292;-61
2021/12/28 04:28:23;;;;;;;3.67;1.00;;;;;;;;;;4948436;28;20070;-60
2021/12/28 04:30:50;;;;;;;4.75;1.17;;;;;;;;;;4952808;28;20153;-60
2021/12/28 04:33:16;;;;;;;3.65;1.10;;;;;;;;;;4955010;28;20487;-60
2021/12/28 04:35:43;;;;;;;9.55;2.67;;;;;;;;;;4946879;28;20205;-62
2021/12/28 04:38:11;;;;;;;7.03;2.30;;;;;;;;;;4940352;28;20134;-61
2021/12/28 04:40:39;;;;;;;6.72;3.00;;;;;;;;;;4948708;28;20496;-60
2021/12/28 04:43:05;;;;;;;5.30;1.98;;;;;;;;;;4946718;28;20113;-60
2021/12/28 04:45:32;;;;;;;9.80;3.63;;;;;;;;;;4942246;28;20690;-59
2021/12/28 04:47:58;;;;;;;7.95;2.95;;;;;;;;;;4949985;28;20083;-60
2021/12/28 04:50:25;;;;;;;5.95;2.45;;;;;;;;;;4959440;28;20066;-60
2021/12/28 04:52:53;;;;;;;5.20;1.98;;;;;;;;;;4954084;28;20110;-60
2021/12/28 04:55:20;;;;;;;2.50;1.42;;;;;;;;;;4956573;28;20162;-59
2021/12/28 04:57:47;;;;;;;6.78;1.70;;;;;;;;;;4957635;28;20142;-58
2021/12/28 05:00:21;;;;;;;8.18;2.92;;;;;;;;;;4952492;28;20090;-60
2021/12/28 05:02:48;;;;;;;4.30;2.17;;;;;;;;;;4954826;28;20810;-58
2021/12/28 05:05:15;;;;;;;4.28;1.83;;;;;;;;;;4957598;28;20051;-60
2021/12/28 05:07:41;;;;;;;5.05;1.50;;;;;;;;;;4954833;28;20495;-60
2021/12/28 05:10:10;;;;;;;6.15;1.42;;;;;;;;;;4953862;28;20177;-58
2021/12/28 05:12:38;;;;;;;4.30;1.20;;;;;;;;;;4956826;28;20082;-57
2021/12/28 05:15:06;;;;;;;4.10;1.33;;;;;;;;;;4957313;28;20063;-57
2021/12/28 05:17:33;;;;;;;2.75;1.50;;;;;;;;;;4962341;28;20094;-58
2021/12/28 05:20:00;;;;;;;7.38;1.90;;;;;;;;;;4952316;28;20089;-59
2021/12/28 05:22:26;;;;;;;3.70;1.02;;;;;;;;;;4954973;28;20075;-60
2021/12/28 05:24:53;;;;;;;2.75;0.80;;;;;;;;;;4950711;28;20165;-60
2021/12/28 05:27:19;;;;;;;4.55;1.02;;;;;;;;;;4955365;28;20070;-60
2021/12/28 05:29:48;;;;;;;3.55;0.98;;;;;;;;;;4949530;28;20082;-60
2021/12/28 05:32:15;;;;;;;1.42;0.73;;;;;;;;;;4955463;28;20055;-59
2021/12/28 05:34:42;;;;;;;4.47;0.90;;;;;;;;;;4937784;29;20138;-58
2021/12/28 05:37:08;;;;;;;5.07;0.95;;;;;;;;;;4952185;28;20573;-60
2021/12/28 05:39:35;;;;;;;2.00;0.77;;;;;;;;;;4952082;28;20074;-58
2021/12/28 05:42:02;;;;;;;4.55;0.98;;;;;;;;;;4958697;28;20600;-57
2021/12/28 05:44:29;;;;;;;3.58;1.10;;;;;;;;;;4948610;28;20176;-59
2021/12/28 05:46:57;;;;;;;2.83;0.85;;;;;;;;;;4949187;28;20138;-59
2021/12/28 05:49:23;;;;;;;2.78;1.15;;;;;;;;;;4952696;28;20090;-60
2021/12/28 05:51:50;;;;;;;7.38;1.30;;;;;;;;;;4960881;28;20130;-58
2021/12/28 05:54:17;;;;;;;3.70;0.77;;;;;;;;;;4955860;28;20086;-61
2021/12/28 05:56:44;;;;;;;2.97;0.93;;;;;;;;;;4952395;28;20058;-60
2021/12/28 05:59:10;;;;;;;6.28;1.58;;;;;;;;;;4952925;28;20093;-60
2021/12/28 06:01:37;;;;;;;2.40;1.45;;;;;;;;;;4959362;28;20074;-60
2021/12/28 06:04:05;;;;;;;1.85;1.13;;;;;;;;;;4950679;28;20078;-61
2021/12/28 06:06:32;;;;;;;5.60;1.33;;;;;;;;;;4956172;28;20075;-60
2021/12/28 06:08:58;;;;;;;3.60;1.42;;;;;;;;;;4961666;28;20583;-60
2021/12/28 06:11:25;;;;;;;9.10;3.55;;;;;;;;;;4949514;28;20047;-59
2021/12/28 06:13:51;;;;;;;7.40;2.17;;;;;;;;;;4956006;28;20902;-58
2021/12/28 06:16:18;;;;;;;3.50;1.98;;;;;;;;;;4951661;28;20076;-59
2021/12/28 06:18:45;;;;;;;4.05;1.70;;;;;;;;;;4952236;28;20078;-60
2021/12/28 06:21:13;;;;;;;5.13;1.92;;;;;;;;;;4951232;28;20098;-60
2021/12/28 06:23:39;;;;;;;4.82;2.00;;;;;;;;;;4942922;28;20917;-60
2021/12/28 06:26:06;;;;;;;3.45;1.33;;;;;;;;;;4951250;28;20692;-57
2021/12/28 06:28:32;;;;;;;4.97;1.88;;;;;;;;;;4951602;28;20167;-60
2021/12/28 06:30:59;;;;;;;10.90;5.00;;;;;;;;;;4952502;28;20074;-58
2021/12/28 06:33:26;;;;;;;5.13;1.55;;;;;;;;;;4955766;28;20071;-60
2021/12/28 06:35:54;;;;;;;6.72;0.98;;;;;;;;;;4955999;28;20047;-59
2021/12/28 06:38:22;;;;;;;2.65;1.17;;;;;;;;;;4953268;28;20048;-57
2021/12/28 06:40:49;;;;;;;7.43;0.90;;;;;;;;;;4950669;28;20231;-60
2021/12/28 06:43:16;;;;;;;6.22;1.17;;;;;;;;;;4956396;28;20130;-59
2021/12/28 06:45:42;;;;;;;6.40;1.20;;;;;;;;;;4932329;28;20070;-60
2021/12/28 06:48:09;;;;;;;5.90;0.73;;;;;;;;;;4956650;28;20102;-60
2021/12/28 06:50:36;;;;;;;7.00;1.15;;;;;;;;;;4958435;28;20145;-60
2021/12/28 06:53:02;;;;;;;6.97;1.08;;;;;;;;;;4950393;28;20047;-60
2021/12/28 06:55:30;;;;;;;7.03;1.00;;;;;;;;;;4960258;28;20078;-59
2021/12/28 06:57:57;;;;;;;3.50;0.90;;;;;;;;;;4957163;28;20082;-60
2021/12/28 07:00:23;;;;;;;7.72;1.83;;;;;;;;;;4954292;28;20082;-60
2021/12/28 07:02:50;;;;;;;3.78;1.42;;;;;;;;;;4955521;28;20795;-59
2021/12/28 07:05:17;;;;;;;7.38;2.75;;;;;;;;;;4952997;28;20040;-58
2021/12/28 07:07:43;;;;;;;9.35;2.58;;;;;;;;;;4944355;28;20134;-60
2021/12/28 07:10:11;;;;;;;3.78;1.20;;;;;;;;;;4953880;28;20078;-60
2021/12/28 07:12:39;;;;;;;3.58;1.23;;;;;;;;;;4947612;28;20051;-61
2021/12/28 07:15:06;;;;;;;5.40;2.10;;;;;;;;;;4948885;28;20123;-59
2021/12/28 07:17:33;;;;;;;24.23;3.65;;;;;;;;;;4952020;28;20046;-60
2021/12/28 07:19:59;;;;;;;14.35;2.15;;;;;;;;;;4953285;28;20139;-60
2021/12/28 07:22:26;;;;;;;5.70;0.98;;;;;;;;;;4952161;28;20078;-60
2021/12/28 07:24:52;;;;;;;3.35;1.10;;;;;;;;;;4957270;28;20178;-60
2021/12/28 07:27:19;;;;;;;3.40;0.80;;;;;;;;;;4953385;28;20151;-60
2021/12/28 07:29:47;;;;;;;4.40;1.45;;;;;;;;;;4955155;28;20145;-60
2021/12/28 07:32:13;;;;;;;6.30;1.52;;;;;;;;;;4954508;28;20071;-61
2021/12/28 07:34:40;;;;;;;8.02;1.80;;;;;;;;;;4952136;28;20071;-60
2021/12/28 07:37:07;;;;;;;5.30;1.10;;;;;;;;;;4932129;28;20674;-59
2021/12/28 07:39:33;;;;;;;5.32;1.13;;;;;;;;;;4951273;28;20134;-59
2021/12/28 07:42:00;;;;;;;8.32;1.35;;;;;;;;;;4952323;28;20070;-60
2021/12/28 07:44:26;;;;;;;10.45;2.28;;;;;;;;;;4947647;28;20138;-59
2021/12/28 07:46:54;;;;;;;5.68;0.85;;;;;;;;;;4952658;28;20086;-60
2021/12/28 07:49:21;;;;;;;8.13;3.47;;;;;;;;;;4955560;28;20118;-60
2021/12/28 07:51:47;;;;;;;8.82;2.90;;;;;;;;;;4950777;28;20118;-60
2021/12/28 07:54:14;;;;;;;4.20;1.95;;;;;;;;;;4952032;28;20070;-59
2021/12/28 07:56:41;;;;;;;4.78;1.80;;;;;;;;;;4948500;28;20122;-60
2021/12/28 07:59:07;;;;;;;5.82;1.20;;;;;;;;;;4950070;28;20078;-60
2021/12/28 08:01:34;;;;;;;3.35;1.00;;;;;;;;;;4948938;28;20433;-60
2021/12/28 08:04:02;;;;;;;3.45;1.10;;;;;;;;;;4951401;28;20535;-61
2021/12/28 08:06:29;;;;;;;20.67;2.47;;;;;;;;;;4954615;28;20109;-60
2021/12/28 08:08:56;;;;;;;8.88;1.98;;;;;;;;;;4954857;28;20139;-61
2021/12/28 08:11:23;;;;;;;4.68;1.35;;;;;;;;;;4950762;28;21419;-61
2021/12/28 08:13:49;;;;;;;7.15;1.20;;;;;;;;;;4955331;28;20500;-60
2021/12/28 08:16:16;;;;;;;2.65;1.40;;;;;;;;;;4955034;28;20130;-59
2021/12/28 08:18:42;;;;;;;19.67;2.30;;;;;;;;;;4945508;28;20130;-60
2021/12/28 08:21:10;;;;;;;2.60;0.90;;;;;;;;;;4949968;28;20070;-60
2021/12/28 08:23:37;;;;;;;5.78;1.10;;;;;;;;;;4935662;28;20117;-56
2021/12/28 08:26:03;;;;;;;4.90;1.05;;;;;;;;;;4961799;28;20070;-59
2021/12/28 08:28:30;;;;;;;1.98;0.90;;;;;;;;;;4960022;28;20762;-60
2021/12/28 08:30:57;;;;;;;4.03;2.08;;;;;;;;;;4957732;28;20043;-59
2021/12/28 08:33:24;;;;;;;4.88;1.20;;;;;;;;;;4953795;28;20094;-60
2021/12/28 08:35:51;;;;;;;6.43;1.58;;;;;;;;;;4950482;28;20084;-61
2021/12/28 08:38:19;;;;;;;4.32;1.50;;;;;;;;;;4957116;28;20074;-60
2021/12/28 08:40:46;;;;;;;4.28;1.65;;;;;;;;;;4956357;28;20051;-58
2021/12/28 08:43:13;;;;;;;1.67;0.98;;;;;;;;;;4954693;28;20083;-60
2021/12/28 08:45:41;;;;;;;2.53;1.10;;;;;;;;;;4955367;28;20219;-60
2021/12/28 08:48:10;;;;;;;2.53;0.57;;;;;;;;;;4955036;28;20522;-59
2021/12/28 08:50:38;;;;;;;2.15;1.05;;;;;;;;;;4959214;28;20050;-59
2021/12/28 08:53:04;;;;;;;1.98;0.60;;;;;;;;;;4953941;28;20047;-61
2021/12/28 08:55:33;;;;;;;2.58;0.70;;;;;;;;;;4957453;28;20071;-60
2021/12/28 08:57:59;;;;;;;1.80;0.25;;;;;;;;;;4961380;28;20071;-60
2021/12/28 09:00:28;;;;;;;1.02;0.30;;;;;;;;;;4954244;28;20078;-60
2021/12/28 09:02:57;;;;;;;2.70;0.68;;;;;;;;;;4952853;28;20110;-58
2021/12/28 09:05:25;;;;;;;1.27;0.45;;;;;;;;;;4958846;28;20152;-60
2021/12/28 09:07:52;;;;;;;1.52;0.45;;;;;;;;;;4960211;28;22064;-60
2021/12/28 09:10:19;;;;;;;0.75;0.50;;;;;;;;;;4954438;28;20079;-61
2021/12/28 09:12:47;;;;;;;2.53;0.57;;;;;;;;;;4954281;28;20066;-61
2021/12/28 09:15:14;;;;;;;3.17;0.50;;;;;;;;;;4953987;28;20129;-60
2021/12/28 09:17:41;;;;;;;0.98;0.60;;;;;;;;;;4961107;28;20074;-61
2021/12/28 09:20:11;;;;;;;4.63;0.80;;;;;;;;;;4952259;28;20134;-61
2021/12/28 09:22:38;;;;;;;2.50;0.85;;;;;;;;;;4949037;28;20059;-60
2021/12/28 09:25:06;;;;;;;1.67;0.70;;;;;;;;;;4958235;28;20083;-61
2021/12/28 09:27:32;;;;;;;3.38;0.52;;;;;;;;;;4952810;28;21946;-62
2021/12/28 09:30:00;;;;;;;3.05;0.47;;;;;;;;;;4955893;28;20479;-61
2021/12/28 09:32:27;;;;;;;0.90;0.50;;;;;;;;;;4948342;28;20155;-61
2021/12/28 09:34:55;;;;;;;1.00;0.60;;;;;;;;;;4947263;28;20067;-61
2021/12/28 09:37:22;;;;;;;1.83;0.47;;;;;;;;;;4956653;28;20141;-61
2021/12/28 09:39:49;;;;;;;4.28;0.90;;;;;;;;;;4952043;28;20142;-60
2021/12/28 09:42:16;;;;;;;3.38;0.60;;;;;;;;;;4938285;28;20141;-61
2021/12/28 09:44:43;;;;;;;1.67;0.60;;;;;;;;;;4956329;28;20071;-61
2021/12/28 09:47:11;;;;;;;3.20;1.10;;;;;;;;;;4956418;28;20564;-61
2021/12/28 09:49:37;;;;;;;3.35;1.95;;;;;;;;;;4958021;28;20059;-61
2021/12/28 09:52:06;;;;;;;3.60;1.00;;;;;;;;;;4950397;28;20067;-62
2021/12/28 09:54:34;;;;;;;14.32;2.17;;;;;;;;;;4951865;28;20117;-60
2021/12/28 09:57:01;;;;;;;3.97;1.10;;;;;;;;;;4955919;28;20058;-61
2021/12/28 09:59:29;;;;;;;4.65;1.63;;;;;;;;;;4948758;28;20082;-61
2021/12/28 10:01:56;;;;;;;1.42;0.73;;;;;;;;;;4955387;28;20133;-63
2021/12/28 10:04:24;;;;;;;2.85;1.00;;;;;;;;;;4952539;28;20130;-62
2021/12/28 10:06:50;;;;;;;5.20;0.70;;;;;;;;;;4959917;28;20090;-61
2021/12/28 10:09:19;;;;;;;2.78;0.88;;;;;;;;;;4952205;28;20132;-64
2021/12/28 10:11:48;;;;;;;2.55;0.90;;;;;;;;;;4953744;28;20063;-61
2021/12/28 10:14:18;;;;;;;1.88;0.60;;;;;;;;;;4952988;28;20166;-62
2021/12/28 10:16:47;;;;;;;1.77;0.88;;;;;;;;;;4957211;28;20724;-62
2021/12/28 10:19:32;;;;;;;1.48;0.85;;;;;;;;;;4953361;28;20071;-62
2021/12/28 10:22:19;;;;;;;1.60;0.70;;;;;;;;;;4951018;28;20126;-62
2021/12/28 10:24:45;;;;;;;2.85;0.73;;;;;;;;;;4953821;28;20074;-62
2021/12/28 10:27:13;;;;;;;1.50;0.52;;;;;;;;;;4961822;28;20065;-61
2021/12/28 10:29:40;;;;;;;2.60;0.73;;;;;;;;;;4956172;28;20424;-62
2021/12/28 10:32:17;;;;;;;1.90;0.77;;;;;;;;;;4956979;28;20157;-63
2021/12/28 10:34:46;;;;;;;1.00;0.50;;;;;;;;;;4956294;28;20142;-61
2021/12/28 10:37:18;;;;;;;2.40;0.63;;;;;;;;;;4956558;28;20126;-63
2021/12/28 10:39:45;;;;;;;1.98;0.70;;;;;;;;;;4953346;28;20074;-63
2021/12/28 10:42:44;;;;;;;1.42;0.50;;;;;;;;;;4953716;28;20149;-62
2021/12/28 10:45:13;;;;;;;2.70;1.13;;;;;;;;;;4954432;28;20074;-62
2021/12/28 10:47:40;;;;;;;2.47;0.80;;;;;;;;;;4951097;28;20149;-63
2021/12/28 10:50:34;;;;;;;5.32;2.30;;;;;;;;;;4953266;28;20086;-63
2021/12/28 10:53:16;;;;;;;4.60;1.88;;;;;;;;;;4957655;28;20053;-63
2021/12/28 10:55:44;;;;;;;3.90;1.70;;;;;;;;;;4948083;28;20110;-63
2021/12/28 10:58:21;;;;;;;1.92;1.05;;;;;;;;;;4952707;28;20121;-62
2021/12/28 11:00:48;;;;;;;7.57;3.30;;;;;;;;;;4952027;28;20149;-62
2021/12/28 11:03:23;;;;;;;16.33;4.57;;;;;;;;;;4954709;28;20078;-63
2021/12/28 11:05:51;;;;;;;1.77;0.90;;;;;;;;;;4953028;28;20043;-62
2021/12/28 11:08:19;;;;;;;1.35;0.55;;;;;;;;;;4953670;28;20144;-63
2021/12/28 11:10:48;;;;;;;1.40;0.85;;;;;;;;;;4955833;28;21010;-63
2021/12/28 11:13:19;;;;;;;1.33;0.60;;;;;;;;;;4954315;28;20070;-63
2021/12/28 11:15:46;;;;;;;0.95;0.50;;;;;;;;;;4951677;28;20146;-63
2021/12/28 11:18:24;;;;;;;1.50;0.65;;;;;;;;;;4954067;28;20127;-63
2021/12/28 11:20:54;;;;;;;2.35;0.50;;;;;;;;;;4955113;28;20051;-63
2021/12/28 11:23:22;;;;;;;1.30;0.50;;;;;;;;;;4956787;28;20145;-63
2021/12/28 11:26:01;;;;;;;1.80;0.52;;;;;;;;;;4952873;28;20138;-63
2021/12/28 11:28:30;;;;;;;1.95;0.50;;;;;;;;;;4952703;28;20150;-63
2021/12/28 11:31:10;;;;;;;0.90;0.50;;;;;;;;;;4938681;28;20105;-63
2021/12/28 11:33:49;;;;;;;0.98;0.40;;;;;;;;;;4953668;28;20157;-63
2021/12/28 11:36:20;;;;;;;0.70;0.40;;;;;;;;;;4953619;28;20065;-63
2021/12/28 11:38:46;;;;;;;1.98;0.80;;;;;;;;;;4956196;28;20648;-63
2021/12/28 11:41:13;;;;;;;2.40;0.88;;;;;;;;;;4957703;28;20138;-63
2021/12/28 11:43:43;;;;;;;1.65;0.70;;;;;;;;;;4952242;28;20082;-63
2021/12/28 11:46:10;;;;;;;9.00;4.15;;;;;;;;;;4953144;28;21316;-63
2021/12/28 11:48:37;;;;;;;2.05;1.10;;;;;;;;;;4951597;28;20492;-63
2021/12/28 11:51:05;;;;;;;2.60;0.70;;;;;;;;;;4956540;28;20137;-63
2021/12/28 11:53:36;;;;;;;1.42;0.68;;;;;;;;;;4952065;28;20061;-64
2021/12/28 11:56:03;;;;;;;1.35;0.68;;;;;;;;;;4949124;28;20106;-63
2021/12/28 11:59:07;;;;;;;2.80;0.77;;;;;;;;;;4953173;28;20133;-64
2021/12/28 12:02:04;;;;;;;3.47;1.60;;;;;;;;;;4957366;28;20726;-63
2021/12/28 12:05:00;;;;;;;2.28;0.85;;;;;;;;;;4954906;28;20043;-62
2021/12/28 12:10:20;;;;;;;1.60;0.70;;;;;;;;;;4944981;28;20051;-63
2021/12/28 12:13:03;;;;;;;2.97;1.30;;;;;;;;;;4935970;28;20314;-63
2021/12/28 12:15:40;;;;;;;3.03;1.40;;;;;;;;;;4937757;28;20209;-63
2021/12/28 12:18:11;;;;;;;1.85;0.90;;;;;;;;;;4938584;28;20059;-62
2021/12/28 12:20:37;;;;;;;4.13;1.40;;;;;;;;;;4935745;28;20126;-62
2021/12/28 12:23:19;;;;;;;4.15;1.90;;;;;;;;;;4935121;28;20154;-63
2021/12/28 12:25:50;;;;;;;5.55;3.20;;;;;;;;;;4938598;28;20086;-63
2021/12/28 12:28:21;;;;;;;3.95;1.52;;;;;;;;;;4935699;28;20048;-63
2021/12/28 12:30:50;;;;;;;5.25;1.70;;;;;;;;;;4935724;28;20173;-63
2021/12/28 12:33:18;;;;;;;3.85;1.60;;;;;;;;;;4934386;28;20737;-63
2021/12/28 12:35:51;;;;;;;2.78;0.80;;;;;;;;;;4935946;28;20099;-62
2021/12/28 12:38:37;;;;;;;1.23;0.70;;;;;;;;;;4935876;28;20138;-62
2021/12/28 12:41:09;;;;;;;2.90;0.70;;;;;;;;;;4934573;28;20047;-62
2021/12/28 12:43:46;;;;;;;1.20;0.70;;;;;;;;;;4939499;28;20145;-62
2021/12/28 12:46:18;;;;;;;2.13;0.88;;;;;;;;;;4937101;28;21072;-62
2021/12/28 12:49:12;;;;;;;2.90;1.02;;;;;;;;;;4935010;28;20079;-62
2021/12/28 12:51:44;;;;;;;4.53;2.13;;;;;;;;;;4937600;28;20142;-62
2021/12/28 12:54:18;;;;;;;4.43;2.00;;;;;;;;;;4938582;28;20481;-61
2021/12/28 12:56:59;;;;;;;5.95;3.03;;;;;;;;;;4937280;28;20061;-62
2021/12/28 12:59:28;;;;;;;5.47;3.00;;;;;;;;;;4937258;28;20142;-62
2021/12/28 13:01:57;;;;;;;4.93;2.78;;;;;;;;;;4938582;28;20078;-62
2021/12/28 13:04:51;;;;;;;3.95;2.00;;;;;;;;;;4937146;28;20078;-62
2021/12/28 13:07:21;;;;;;;2.58;1.30;;;;;;;;;;4940583;28;20148;-62
2021/12/28 13:09:49;;;;;;;1.77;1.02;;;;;;;;;;4940968;28;20189;-63
2021/12/28 13:12:18;;;;;;;2.55;1.20;;;;;;;;;;4943975;28;20194;-62
2021/12/28 13:14:46;;;;;;;3.58;1.92;;;;;;;;;;4945408;28;20051;-61
2021/12/28 13:17:20;;;;;;;1.75;1.00;;;;;;;;;;4940599;28;20220;-63
2021/12/28 13:20:01;;;;;;;3.13;1.88;;;;;;;;;;4943885;28;20079;-64
2021/12/28 13:22:29;;;;;;;2.63;1.08;;;;;;;;;;4943096;28;20134;-61
2021/12/28 13:24:57;;;;;;;1.63;0.90;;;;;;;;;;4941700;28;20079;-61
2021/12/28 13:27:25;;;;;;;2.15;1.05;;;;;;;;;;4938753;28;20095;-60
2021/12/28 13:29:51;;;;;;;1.52;0.60;;;;;;;;;;4941513;28;21057;-62
2021/12/28 13:32:21;;;;;;;1.13;0.60;;;;;;;;;;4936323;28;20138;-61
2021/12/28 13:35:08;;;;;;;1.33;0.68;;;;;;;;;;4941200;28;20054;-61
2021/12/28 13:37:37;;;;;;;0.80;0.40;;;;;;;;;;4939099;28;20388;-61
2021/12/28 13:40:07;;;;;;;1.35;0.65;;;;;;;;;;4939484;28;20656;-61
2021/12/28 13:42:34;;;;;;;0.70;0.30;;;;;;;;;;4941166;28;20067;-61
2021/12/28 13:45:00;;;;;;;1.20;0.55;;;;;;;;;;4942262;28;20126;-61
2021/12/28 13:47:27;;;;;;;2.83;0.73;;;;;;;;;;4939178;28;20134;-60
2021/12/28 13:50:11;;;;;;;2.28;1.10;;;;;;;;;;4937648;28;20082;-60
2021/12/28 13:52:47;;;;;;;1.02;0.70;;;;;;;;;;4938185;28;20165;-61
2021/12/28 13:55:15;;;;;;;2.70;0.90;;;;;;;;;;4940551;28;20185;-61
2021/12/28 13:57:42;;;;;;;2.30;1.27;;;;;;;;;;4935689;28;20063;-61
2021/12/28 14:00:11;;;;;;;3.75;1.92;;;;;;;;;;4935952;28;20255;-63
2021/12/28 14:02:39;;;;;;;3.03;1.33;;;;;;;;;;4926725;28;20169;-61
2021/12/28 14:05:08;;;;;;;5.20;1.83;;;;;;;;;;4941770;28;20853;-61
2021/12/28 14:07:35;;;;;;;3.70;1.60;;;;;;;;;;4939137;28;20074;-61
2021/12/28 14:10:03;;;;;;;3.40;1.70;;;;;;;;;;4942377;28;20133;-63
2021/12/28 14:12:29;;;;;;;3.47;1.30;;;;;;;;;;4940320;28;20795;-63
2021/12/28 14:14:56;;;;;;;4.32;1.88;;;;;;;;;;4939988;28;20078;-63
2021/12/28 14:17:23;;;;;;;4.10;2.20;;;;;;;;;;4937480;28;20078;-63
2021/12/28 14:19:55;;;;;;;4.78;2.30;;;;;;;;;;4942105;28;20039;-62
2021/12/28 14:22:23;;;;;;;0.75;0.50;;;;;;;;;;4942671;28;20069;-63
2021/12/28 14:24:51;;;;;;;2.42;1.33;;;;;;;;;;4941449;28;20137;-64
2021/12/28 14:27:24;;;;;;;3.63;1.30;;;;;;;;;;4939942;28;20051;-62
2021/12/28 14:29:59;;;;;;;1.38;0.77;;;;;;;;;;4940937;28;20699;-61
2021/12/28 14:32:33;;;;;;;3.88;1.40;;;;;;;;;;4941183;28;20146;-62
2021/12/28 14:35:02;;;;;;;2.33;1.30;;;;;;;;;;4936703;28;20145;-61
2021/12/28 14:37:35;;;;;;;2.08;0.90;;;;;;;;;;4936940;28;20681;-62
2021/12/28 14:40:14;;;;;;;2.92;1.40;;;;;;;;;;4921203;28;20074;-62
2021/12/28 14:42:41;;;;;;;3.70;1.60;;;;;;;;;;4933093;28;20138;-61
2021/12/28 14:45:09;;;;;;;3.30;1.20;;;;;;;;;;4932692;28;20134;-62
2021/12/28 14:47:38;;;;;;;3.38;2.00;;;;;;;;;;4931585;28;20423;-62
2021/12/28 14:50:11;;;;;;;2.45;1.13;;;;;;;;;;4937207;28;20138;-61
2021/12/28 14:52:39;;;;;;;3.70;1.50;;;;;;;;;;4932618;28;20050;-61
2021/12/28 14:55:08;;;;;;;1.55;0.70;;;;;;;;;;4925874;28;20178;-63
2021/12/28 14:57:38;;;;;;;2.50;1.10;;;;;;;;;;4913054;28;20066;-63